Bradford, NH

4:35 PM EDT on March 24, 2017 (GMT -0400)
Bradford Center | | Change Station

Elev 906 ft 43.23 °N, 71.96 °W | Updated 21 seconds ago

Overcast
Overcast
32.5 °F
Feels Like 32 °F
N
0.0
Wind Variable Wind from ESE

Today
High -- | Low -- °F
--% Chance of Precip.
Yesterday
High -- | Low -- °F
Precip. -- in
Pressure 30.13 in
Visibility 4.0 miles
Clouds Scattered Clouds 700 ft
Overcast 1500 ft
Windchill 32 °F
Dew Point 31 °F
Humidity 96%
Rainfall 0.00 in
Snow Depth Not available.
6:43 AM 7:05 PM
Waning Crescent, 13% visible
SPECI KCON 242030Z AUTO 16005KT 4SM -RA BR SCT007 OVC015 01/M01 A3013 RMK AO2 RAE1955B22UPB1955E1958 P0000 T00061006
Pressure 30.13 in
Visibility 4.0 miles
Clouds Scattered Clouds 700 ft
Overcast 1500 ft
Windchill 32 °F
Dew Point 31 °F
Humidity 96%
Rainfall 0.00 in
Snow Depth Not available.
6:43 AM 7:05 PM
Waning Crescent, 13% visible
SPECI KCON 242030Z AUTO 16005KT 4SM -RA BR SCT007 OVC015 01/M01 A3013 RMK AO2 RAE1955B22UPB1955E1958 P0000 T00061006

Get Severe Weather Alerts

Thanks for signing up!

Be on the lookout for a verification email in your inbox.

You'll start receiving the daily forecast at 8 AM.

×

10-Day Weather Forecast

Almanac

Astronomy

Mar. 24, 2017 Rise Set
Actual Time
Civil Twilight
Nautical Twilight
Astronomical Twilight
Moon
Length of Visible Light
Length of Day
Tomorrow will be .
, % of the Moon is Illuminated

Today's Extremes

State Highs State Lows

Community

WunderPhotos

Upload Photos

1,962,540 photos uploaded!

WunderBlog® & News

Nearby

Air Quality

  Air Quality AQ Index Pollutant
Not available.

Snow Depth

Station Depth Elevation

Earthquake Activity

City Distance Mag. Time & Date
Minimum magnitude displayed is 2.5.

Earthquake Activity

City Distance Mag. Time & Date
Minimum magnitude displayed is 2.5.

Coastal Water Temperatures

Place Temperature

Stations

Nearby Weather Stations

Station Location Temp. Windchill Dew Point Humidity Wind Precip. Elev Updated Type
                   

Watches & Warnings

There are currently no watches in effect.